Time;durP1;ratioP1;P1;durP2;ratioP2;P2;SDS_P1;SDS_P2;PMS_P1;PMS_P2;Temp;Humidity;BMP_temperature;BMP_pressure;BME280_temperature;BME280_humidity;BME280_pressure;Samples;Min_cycle;Max_cycle;Signal;HPM_P1;HPM_P2
2020/12/18 00:01:27;;;;;;;72.92;39.55;;;;;;;1.44;82.35;100785.53;1692678;84;21154;-60
2020/12/18 00:03:55;;;;;;;73.52;39.83;;;;;;;1.54;81.96;100783.89;1692295;83;21178;-60
2020/12/18 00:06:24;;;;;;;80.28;42.23;;;;;;;1.60;81.81;100783.13;1692604;82;21776;-59
2020/12/18 00:08:52;;;;;;;79.07;41.65;;;;;;;1.56;81.95;100784.52;1704948;84;21319;-60
2020/12/18 00:11:24;;;;;;;66.10;35.33;;;;;;;1.46;82.04;100783.98;1700817;83;21189;-60
2020/12/18 00:13:52;;;;;;;61.10;35.50;;;;;;;1.42;82.09;100780.84;1703754;83;21125;-60
2020/12/18 00:16:20;;;;;;;69.53;38.05;;;;;;;1.52;81.78;100776.55;1646995;86;21173;-59
2020/12/18 00:18:48;;;;;;;71.95;37.83;;;;;;;1.50;81.94;100783.43;1673123;83;21200;-60
2020/12/18 00:21:19;;;;;;;67.45;35.28;;;;;;;1.42;82.06;100776.81;1684787;83;21185;-60
2020/12/18 00:23:47;;;;;;;60.92;32.95;;;;;;;1.34;82.18;100780.13;1673444;83;21185;-60
2020/12/18 00:26:15;;;;;;;60.05;34.35;;;;;;;1.35;82.09;100779.09;1722699;83;21177;-60
2020/12/18 00:28:43;;;;;;;58.87;33.55;;;;;;;1.40;81.98;100780.72;1715604;83;21185;-60
2020/12/18 00:31:10;;;;;;;60.65;33.45;;;;;;;1.32;82.33;100776.28;1701850;83;21298;-60
2020/12/18 00:33:37;;;;;;;78.20;37.83;;;;;;;1.24;82.59;100775.56;1699523;83;21137;-60
2020/12/18 00:36:05;;;;;;;88.70;43.38;;;;;;;1.19;82.78;100781.48;1694074;83;21173;-59
2020/12/18 00:38:32;;;;;;;95.20;47.38;;;;;;;1.29;82.53;100780.68;1661385;85;21442;-60
2020/12/18 00:41:00;;;;;;;124.10;49.93;;;;;;;1.32;82.43;100774.94;1696035;83;21164;-60
2020/12/18 00:43:27;;;;;;;182.90;63.25;;;;;;;1.25;82.74;100774.52;1682227;83;21149;-59
2020/12/18 00:45:55;;;;;;;140.70;60.67;;;;;;;1.17;83.01;100770.08;1679101;83;21141;-59
2020/12/18 00:48:22;;;;;;;146.28;64.55;;;;;;;1.21;82.96;100774.06;1671481;83;21286;-59
2020/12/18 00:50:51;;;;;;;145.10;60.75;;;;;;;1.26;82.74;100767.64;1701933;83;21168;-60
2020/12/18 00:53:18;;;;;;;143.85;55.70;;;;;;;1.22;83.08;100758.30;1695460;83;21145;-59
2020/12/18 00:55:46;;;;;;;135.25;56.00;;;;;;;1.19;83.39;100757.84;1708826;83;21141;-59
2020/12/18 00:58:13;;;;;;;93.00;45.33;;;;;;;1.17;83.47;100753.99;1655583;83;21457;-59
2020/12/18 01:00:41;;;;;;;96.78;43.85;;;;;;;1.28;83.10;100754.03;1676399;84;21152;-60
2020/12/18 01:03:10;;;;;;;101.18;44.03;;;;;;;1.29;82.90;100751.67;1670040;85;21145;-59
2020/12/18 01:05:38;;;;;;;133.75;43.35;;;;;;;1.21;83.19;100753.11;1678545;83;21169;-59
2020/12/18 01:08:06;;;;;;;84.47;42.98;;;;;;;1.10;83.48;100755.75;1710532;83;21153;-59
2020/12/18 01:10:33;;;;;;;86.72;43.33;;;;;;;1.14;83.46;100755.71;1684893;83;21616;-60
2020/12/18 01:13:01;;;;;;;91.60;44.00;;;;;;;1.28;83.20;100760.73;1684776;84;21150;-59
2020/12/18 01:15:30;;;;;;;89.03;43.08;;;;;;;1.04;83.32;100721.65;1679101;84;21613;-59
2020/12/18 01:17:58;;;;;;;73.57;40.05;;;;;;;1.19;83.54;100757.34;1671324;84;21174;-59
2020/12/18 01:20:26;;;;;;;77.92;42.48;;;;;;;1.13;83.68;100751.39;1683816;84;21163;-59
2020/12/18 01:22:54;;;;;;;78.65;40.40;;;;;;;1.22;83.36;100750.77;1696121;84;21164;-60
2020/12/18 01:25:23;;;;;;;76.62;39.80;;;;;;;1.15;83.35;100737.27;1708362;83;21162;-59
2020/12/18 01:27:51;;;;;;;93.62;41.35;;;;;;;1.14;83.69;100744.14;1637304;84;21188;-59
2020/12/18 01:30:18;;;;;;;72.87;38.20;;;;;;;1.07;83.90;100749.42;1659722;85;21646;-59
2020/12/18 01:32:46;;;;;;;76.28;38.73;;;;;;;1.14;83.76;100737.44;1688808;84;21645;-60
2020/12/18 01:35:13;;;;;;;70.78;39.18;;;;;;;1.24;83.47;100732.65;1672457;84;21655;-59
2020/12/18 01:37:48;;;;;;;66.17;34.67;;;;;;;1.20;83.56;100738.89;1666917;85;21343;-59
2020/12/18 01:40:16;;;;;;;66.33;33.70;;;;;;;1.09;83.77;100735.84;1653838;86;21348;-59
2020/12/18 01:42:43;;;;;;;60.40;34.15;;;;;;;1.02;83.94;100740.29;1661721;84;21637;-60
2020/12/18 01:45:10;;;;;;;54.77;31.93;;;;;;;1.09;83.67;100738.02;1676679;84;21614;-60
2020/12/18 01:47:58;;;;;;;57.75;30.35;;;;;;;1.13;83.57;100737.14;1684687;84;21201;-60
2020/12/18 01:50:25;;;;;;;56.95;29.92;;;;;;;1.03;83.87;100737.94;1659276;85;21196;-59
2020/12/18 01:52:54;;;;;;;48.83;26.65;;;;;;;0.95;84.11;100743.72;1680800;85;21789;-59
2020/12/18 01:55:24;;;;;;;44.55;26.33;;;;;;;1.02;84.05;100748.33;1691579;84;21181;-59
2020/12/18 01:57:51;;;;;;;46.55;26.65;;;;;;;1.13;83.71;100746.53;1659200;85;21334;-60
2020/12/18 02:00:20;;;;;;;43.75;24.35;;;;;;;1.09;83.81;100741.21;1670695;84;21166;-59
2020/12/18 02:02:48;;;;;;;44.13;24.63;;;;;;;1.02;83.97;100745.15;1682382;84;21327;-60
2020/12/18 02:05:40;;;;;;;34.10;20.45;;;;;;;1.02;84.09;100738.45;1795258;79;23505;-59
2020/12/18 02:08:09;;;;;;;35.80;21.17;;;;;;;1.09;83.70;100735.84;1766787;78;21271;-60
2020/12/18 02:10:51;;;;;;;41.63;21.77;;;;;;;1.07;83.59;100729.31;1767130;79;22653;-59
2020/12/18 02:13:20;;;;;;;37.23;21.45;;;;;;;0.94;83.88;100729.98;1704812;82;21152;-60
2020/12/18 02:15:51;;;;;;;32.00;19.77;;;;;;;0.90;84.07;100734.05;1721169;82;21159;-60
2020/12/18 02:18:29;;;;;;;33.85;19.52;;;;;;;1.08;83.75;100721.60;1769473;79;22445;-60
2020/12/18 02:20:57;;;;;;;40.12;20.32;;;;;;;1.06;83.72;100728.18;1680867;83;21176;-60
2020/12/18 02:23:24;;;;;;;34.15;18.87;;;;;;;0.98;83.92;100725.08;1712950;83;21279;-60
2020/12/18 02:26:05;;;;;;;32.83;19.23;;;;;;;0.92;84.14;100726.64;1720231;83;21908;-59
2020/12/18 02:28:40;;;;;;;32.10;18.25;;;;;;;1.01;83.99;100722.02;1693983;83;21149;-60
2020/12/18 02:31:09;;;;;;;27.05;17.32;;;;;;;1.09;83.60;100725.95;1702212;82;21386;-60
2020/12/18 02:33:42;;;;;;;29.10;17.40;;;;;;;1.04;83.77;100718.13;1703233;83;21593;-59
2020/12/18 02:36:13;;;;;;;30.05;17.05;;;;;;;0.92;83.84;100715.91;1722355;83;21168;-60
2020/12/18 02:38:42;;;;;;;28.02;16.30;;;;;;;0.97;83.78;100719.39;1683981;84;21327;-60
2020/12/18 02:41:10;;;;;;;26.27;14.68;;;;;;;1.07;83.48;100717.25;1710354;83;21602;-60
2020/12/18 02:43:37;;;;;;;26.60;16.32;;;;;;;1.02;83.58;100718.34;1722062;83;21145;-60
2020/12/18 02:46:06;;;;;;;29.20;16.65;;;;;;;0.90;83.79;100713.94;1663513;83;21156;-60
2020/12/18 02:48:35;;;;;;;23.98;14.68;;;;;;;0.93;83.75;100714.07;1697885;83;21596;-60
2020/12/18 02:51:04;;;;;;;23.70;14.23;;;;;;;1.05;83.46;100718.46;1669037;83;21121;-59
2020/12/18 02:53:32;;;;;;;23.10;14.75;;;;;;;1.00;83.55;100722.53;1693835;83;21314;-60
2020/12/18 02:56:10;;;;;;;23.62;14.53;;;;;;;0.95;83.80;100722.78;1793020;79;22996;-59
2020/12/18 02:58:54;;;;;;;22.87;14.03;;;;;;;0.86;83.95;100730.57;1756534;80;21282;-59
2020/12/18 03:01:22;;;;;;;22.13;13.32;;;;;;;0.98;83.64;100727.77;1770882;80;21218;-59
2020/12/18 03:03:49;;;;;;;19.95;12.37;;;;;;;1.01;83.43;100727.39;1740208;81;21149;-59
2020/12/18 03:06:35;;;;;;;21.90;11.83;;;;;;;0.88;83.64;100728.05;1730245;80;21159;-60
2020/12/18 03:09:04;;;;;;;18.95;11.97;;;;;;;0.75;83.96;100726.50;1742212;80;21231;-61
2020/12/18 03:11:32;;;;;;;22.27;13.50;;;;;;;0.81;83.87;100730.31;1679103;81;21200;-60
2020/12/18 03:14:00;;;;;;;17.50;12.03;;;;;;;0.91;83.57;100722.81;1746355;82;21620;-60
2020/12/18 03:16:29;;;;;;;17.82;11.57;;;;;;;0.89;83.76;100727.52;1683248;84;21325;-60
2020/12/18 03:19:02;;;;;;;19.90;12.30;;;;;;;0.82;83.88;100727.42;1698380;83;21299;-60
2020/12/18 03:21:29;;;;;;;17.75;11.15;;;;;;;0.87;83.78;100728.22;1710568;82;21173;-60
2020/12/18 03:24:15;;;;;;;17.57;10.75;;;;;;;0.94;83.40;100723.78;1677982;82;21177;-60
2020/12/18 03:27:04;;;;;;;17.67;10.75;;;;;;;0.86;83.65;100728.73;1793613;79;22657;-59
2020/12/18 03:29:33;;;;;;;18.40;11.53;;;;;;;0.73;83.83;100724.53;1775206;80;21145;-62
2020/12/18 03:32:01;;;;;;;16.32;10.55;;;;;;;0.80;83.75;100728.64;1710694;83;21247;-62
2020/12/18 03:34:30;;;;;;;17.00;10.32;;;;;;;0.88;83.47;100731.23;1716589;82;21181;-61
2020/12/18 03:37:02;;;;;;;16.97;10.93;;;;;;;0.79;83.61;100724.28;1658662;83;21137;-61
2020/12/18 03:40:10;;;;;;;19.40;11.48;;;;;;;0.72;83.96;100715.31;1759789;79;22765;-59
2020/12/18 03:42:40;;;;;;;18.48;11.40;;;;;;;0.72;83.85;100720.17;1697643;83;21604;-61
2020/12/18 03:45:07;;;;;;;20.35;12.18;;;;;;;0.84;83.55;100727.26;1709970;82;21157;-60
2020/12/18 03:47:50;;;;;;;18.27;11.68;;;;;;;0.82;83.77;100718.55;1772603;79;23186;-59
2020/12/18 03:50:19;;;;;;;18.70;11.75;;;;;;;0.74;83.96;100722.69;1658380;83;21348;-59
2020/12/18 03:52:50;;;;;;;20.12;11.30;;;;;;;0.72;84.09;100719.34;1717131;82;21280;-59
2020/12/18 03:55:18;;;;;;;18.67;12.60;;;;;;;0.86;83.65;100720.69;1694500;83;21192;-60
2020/12/18 03:58:03;;;;;;;17.27;10.75;;;;;;;0.90;83.48;100726.51;1667150;83;21291;-62
2020/12/18 04:00:47;;;;;;;17.30;11.20;;;;;;;0.81;83.62;100722.27;1692212;83;21169;-61
2020/12/18 04:03:15;;;;;;;17.87;11.78;;;;;;;0.70;83.83;100718.20;1716860;83;21125;-62
2020/12/18 04:05:43;;;;;;;18.82;12.28;;;;;;;0.74;83.68;100715.48;1687230;83;21770;-62
2020/12/18 04:08:12;;;;;;;20.02;12.43;;;;;;;0.82;83.29;100712.69;1644421;85;21165;-62
2020/12/18 04:10:44;;;;;;;19.00;13.08;;;;;;;0.76;83.43;100714.77;1688629;83;21316;-61
2020/12/18 04:13:37;;;;;;;19.50;12.73;;;;;;;0.72;83.66;100704.59;1806648;79;23336;-60
2020/12/18 04:16:05;;;;;;;18.73;11.80;;;;;;;0.68;83.74;100714.02;1737260;81;21691;-60
2020/12/18 04:18:32;;;;;;;19.45;11.85;;;;;;;0.82;83.38;100705.15;1770251;80;21283;-60
2020/12/18 04:21:00;;;;;;;18.20;12.00;;;;;;;0.81;83.36;100701.66;1671379;84;21215;-62
2020/12/18 04:23:30;;;;;;;21.07;12.73;;;;;;;0.72;83.51;100703.26;1704636;83;21201;-62
2020/12/18 04:26:19;;;;;;;17.90;11.90;;;;;;;0.68;83.79;100701.96;1741755;79;23171;-60
2020/12/18 04:28:47;;;;;;;15.75;10.15;;;;;;;0.71;83.52;100707.78;1695070;83;21157;-60
2020/12/18 04:31:15;;;;;;;15.90;10.90;;;;;;;0.74;83.33;100710.63;1666966;83;21189;-61
2020/12/18 04:33:44;;;;;;;17.52;11.83;;;;;;;0.67;83.51;100715.06;1651441;85;21129;-61
2020/12/18 04:36:12;;;;;;;17.73;10.58;;;;;;;0.59;83.67;100709.27;1661807;85;21191;-61
2020/12/18 04:38:41;;;;;;;16.25;11.10;;;;;;;0.64;83.56;100710.07;1682611;83;21275;-61
2020/12/18 04:41:19;;;;;;;16.42;10.30;;;;;;;0.78;83.20;100713.27;1761917;79;23241;-60
2020/12/18 04:43:49;;;;;;;17.02;10.80;;;;;;;0.68;83.33;100724.23;1743011;82;21505;-60
2020/12/18 04:46:18;;;;;;;18.92;11.05;;;;;;;0.62;83.59;100718.78;1744367;82;21216;-62
2020/12/18 04:48:47;;;;;;;16.48;10.98;;;;;;;0.57;83.80;100726.55;1711820;82;21584;-63
2020/12/18 04:51:22;;;;;;;17.00;11.20;;;;;;;0.64;83.58;100724.27;1751947;82;21529;-63
2020/12/18 04:53:53;;;;;;;17.10;11.22;;;;;;;0.75;83.12;100730.52;1749670;82;21137;-63
2020/12/18 04:56:24;;;;;;;19.37;11.78;;;;;;;0.67;83.25;100730.63;1708413;82;21113;-63
2020/12/18 04:58:55;;;;;;;18.73;11.95;;;;;;;0.60;83.48;100727.52;1686120;82;21146;-63
2020/12/18 05:01:25;;;;;;;17.37;11.12;;;;;;;0.56;83.62;100730.24;1711386;82;21283;-62
2020/12/18 05:04:01;;;;;;;17.42;13.60;;;;;;;0.75;83.26;100730.52;1760793;79;28341;-60
2020/12/18 05:06:29;;;;;;;16.37;11.15;;;;;;;1.08;82.44;100731.49;1732176;82;21871;-60
2020/12/18 05:08:56;;;;;;;16.25;10.00;;;;;;;1.24;81.85;100729.43;1710528;83;21740;-61
2020/12/18 05:11:26;;;;;;;14.75;9.90;;;;;;;1.12;82.11;100729.60;1641641;85;21168;-60
2020/12/18 05:13:55;;;;;;;15.08;9.78;;;;;;;1.12;82.10;100737.64;1703443;83;21275;-60
2020/12/18 05:16:24;;;;;;;14.25;9.60;;;;;;;1.18;81.85;100730.69;1722109;83;21699;-60
2020/12/18 05:19:06;;;;;;;14.98;9.48;;;;;;;1.10;81.91;100727.59;1801079;79;23094;-59
2020/12/18 05:21:42;;;;;;;15.48;9.50;;;;;;;0.93;82.09;100736.86;1752477;80;21166;-61
2020/12/18 05:24:13;;;;;;;15.65;9.75;;;;;;;0.84;82.29;100736.64;1665598;81;21119;-62
2020/12/18 05:26:42;;;;;;;15.25;9.05;;;;;;;0.91;82.02;100735.72;1743998;81;21194;-62
2020/12/18 05:29:10;;;;;;;14.73;8.88;;;;;;;0.91;81.90;100734.88;1758221;81;21182;-62
2020/12/18 05:32:00;;;;;;;16.80;9.90;;;;;;;0.81;82.15;100739.70;1747001;81;21132;-62
2020/12/18 05:34:39;;;;;;;14.58;9.63;;;;;;;0.71;82.45;100744.50;1743537;81;21168;-62
2020/12/18 05:37:13;;;;;;;14.40;9.53;;;;;;;0.77;82.33;100753.13;1755083;81;21205;-61
2020/12/18 05:39:55;;;;;;;16.12;9.20;;;;;;;0.89;82.12;100752.48;1796845;78;22644;-59
2020/12/18 05:42:24;;;;;;;14.70;9.55;;;;;;;0.78;82.23;100750.78;1776791;80;21282;-59
2020/12/18 05:44:52;;;;;;;17.05;10.35;;;;;;;0.68;82.41;100752.88;1766675;80;21881;-59
2020/12/18 05:47:33;;;;;;;17.25;10.28;;;;;;;0.63;82.55;100749.93;1744805;80;21108;-61
2020/12/18 05:50:00;;;;;;;17.25;9.60;;;;;;;0.80;82.25;100757.62;1767893;80;21563;-61
2020/12/18 05:52:29;;;;;;;17.07;10.60;;;;;;;0.87;82.17;100757.20;1722109;80;21164;-62
2020/12/18 05:55:09;;;;;;;17.57;10.55;;;;;;;0.81;82.36;100752.59;1785249;80;21152;-62
2020/12/18 05:57:39;;;;;;;18.73;10.10;;;;;;;0.76;82.48;100756.82;1716326;80;21610;-61
2020/12/18 06:00:08;;;;;;;16.17;9.65;;;;;;;0.85;82.27;100757.88;1733862;81;21603;-61
2020/12/18 06:02:46;;;;;;;16.82;10.82;;;;;;;0.99;81.85;100752.23;1802555;79;22966;-59
2020/12/18 06:05:19;;;;;;;16.95;10.53;;;;;;;0.87;81.98;100762.57;1760698;80;21173;-59
2020/12/18 06:07:48;;;;;;;20.08;10.70;;;;;;;0.79;82.27;100760.47;1683034;84;21139;-59
2020/12/18 06:10:20;;;;;;;19.25;11.08;;;;;;;0.76;82.40;100768.88;1694479;83;21157;-59
2020/12/18 06:13:01;;;;;;;19.00;11.57;;;;;;;0.92;82.16;100766.05;1815153;77;23052;-61
2020/12/18 06:15:31;;;;;;;17.62;11.40;;;;;;;0.95;81.96;100767.85;1750617;81;21177;-60
2020/12/18 06:18:01;;;;;;;17.82;10.65;;;;;;;0.90;82.12;100764.88;1673123;82;21118;-61
2020/12/18 06:20:38;;;;;;;19.75;11.15;;;;;;;0.88;82.33;100762.91;1715262;81;21179;-61
2020/12/18 06:23:06;;;;;;;17.27;10.93;;;;;;;0.88;82.39;100762.06;1720367;81;21179;-60
2020/12/18 06:25:42;;;;;;;18.30;12.63;;;;;;;1.04;82.03;100765.89;1754028;79;28412;-59
2020/12/18 06:28:23;;;;;;;18.50;12.03;;;;;;;1.35;80.93;100761.65;1652948;83;21157;-61
2020/12/18 06:31:27;;;;;;;19.37;13.30;;;;;;;1.43;80.21;100764.23;1721969;83;21649;-61
2020/12/18 06:34:07;;;;;;;16.60;10.78;;;;;;;1.22;80.59;100761.48;1716839;82;21648;-61
2020/12/18 06:36:57;;;;;;;18.92;11.30;;;;;;;1.15;80.69;100768.62;1712455;83;21366;-62
2020/12/18 06:39:47;;;;;;;17.50;10.63;;;;;;;1.03;81.01;100765.56;1773324;79;24206;-61
2020/12/18 06:42:29;;;;;;;16.17;10.15;;;;;;;0.87;81.53;100771.95;1672828;84;21619;-61
2020/12/18 06:45:14;;;;;;;16.85;9.83;;;;;;;0.77;81.89;100767.88;1774901;79;22778;-59
2020/12/18 06:48:24;;;;;;;17.00;10.00;;;;;;;0.81;81.75;100770.52;1722658;83;21156;-61
2020/12/18 06:51:29;;;;;;;17.12;10.20;;;;;;;0.86;81.74;100764.91;1701685;83;21762;-60
2020/12/18 06:54:14;;;;;;;18.87;10.82;;;;;;;0.82;82.21;100766.80;1779828;79;22929;-59
2020/12/18 06:56:43;;;;;;;27.15;14.95;;;;;;;0.72;82.32;100766.23;1695706;83;21169;-59
2020/12/18 06:59:25;;;;;;;20.97;13.28;;;;;;;0.81;82.07;100759.80;1779810;79;22659;-59
2020/12/18 07:01:52;;;;;;;23.00;14.28;;;;;;;0.78;81.95;100756.15;1722914;82;21205;-60
2020/12/18 07:04:21;;;;;;;20.50;12.28;;;;;;;0.68;82.20;100766.27;1722726;83;21609;-60
2020/12/18 07:06:48;;;;;;;21.50;13.08;;;;;;;0.54;82.42;100759.05;1722555;82;21202;-59
2020/12/18 07:09:17;;;;;;;38.08;20.57;;;;;;;0.57;82.36;100765.41;1684213;84;21169;-59
2020/12/18 07:11:46;;;;;;;59.80;30.27;;;;;;;0.66;82.16;100765.64;1714591;83;21125;-59
2020/12/18 07:14:15;;;;;;;79.12;38.33;;;;;;;0.62;82.37;100764.34;1722788;83;21194;-59
2020/12/18 07:16:55;;;;;;;52.78;27.45;;;;;;;0.57;82.58;100769.42;1705632;83;21160;-60
2020/12/18 07:19:23;;;;;;;48.30;23.20;;;;;;;0.54;82.76;100764.41;1720566;83;21327;-60
2020/12/18 07:21:56;;;;;;;53.98;27.40;;;;;;;0.69;82.36;100768.78;1694618;83;21316;-61
2020/12/18 07:24:23;;;;;;;45.90;23.00;;;;;;;0.75;82.23;100763.19;1718052;83;21185;-61
2020/12/18 07:26:51;;;;;;;35.38;18.12;;;;;;;0.68;82.45;100766.27;1714130;83;21169;-60
2020/12/18 07:29:19;;;;;;;31.33;16.62;;;;;;;0.61;82.64;100766.68;1707275;83;21172;-61
2020/12/18 07:31:46;;;;;;;28.92;15.53;;;;;;;0.69;82.53;100762.59;1692552;83;21168;-61
2020/12/18 07:34:13;;;;;;;43.73;18.45;;;;;;;0.82;82.21;100768.14;1700106;83;21157;-61
2020/12/18 07:36:40;;;;;;;41.35;17.82;;;;;;;0.80;82.26;100768.84;1722582;83;21181;-61
2020/12/18 07:39:10;;;;;;;40.73;16.67;;;;;;;0.75;82.37;100768.05;1691964;83;21145;-61
2020/12/18 07:41:37;;;;;;;38.17;16.73;;;;;;;0.72;82.48;100775.62;1707093;83;21156;-61
2020/12/18 07:44:06;;;;;;;29.40;15.13;;;;;;;0.80;82.17;100771.02;1715397;82;21763;-60
2020/12/18 07:46:35;;;;;;;35.05;15.40;;;;;;;0.87;81.87;100779.99;1692330;85;21184;-61
2020/12/18 07:49:11;;;;;;;26.48;13.55;;;;;;;0.81;82.06;100778.56;1713825;83;21872;-60
2020/12/18 07:51:40;;;;;;;21.90;11.75;;;;;;;0.73;82.26;100780.81;1713804;83;21210;-61
2020/12/18 07:54:07;;;;;;;21.42;11.20;;;;;;;0.66;82.33;100775.86;1711332;83;21157;-60
2020/12/18 07:56:35;;;;;;;18.87;11.40;;;;;;;0.76;81.90;100780.44;1722673;83;21184;-60
2020/12/18 07:59:08;;;;;;;23.92;13.08;;;;;;;0.83;81.60;100777.35;1692371;83;21129;-61
2020/12/18 08:01:36;;;;;;;22.42;12.88;;;;;;;0.77;81.83;100774.58;1697889;83;21365;-61
2020/12/18 08:04:12;;;;;;;23.98;14.03;;;;;;;0.70;82.03;100778.50;1690249;83;21320;-61
2020/12/18 08:06:42;;;;;;;19.73;11.20;;;;;;;0.69;82.15;100777.33;1690841;83;21341;-61
2020/12/18 08:09:12;;;;;;;17.37;10.98;;;;;;;0.84;81.64;100784.39;1689525;85;21858;-60
2020/12/18 08:11:45;;;;;;;14.75;10.43;;;;;;;0.80;81.59;100776.89;1705780;83;21243;-60
2020/12/18 08:14:13;;;;;;;19.00;11.45;;;;;;;0.73;81.93;100782.66;1687602;84;21173;-60
2020/12/18 08:16:42;;;;;;;17.85;9.70;;;;;;;0.67;82.07;100788.25;1689166;85;21222;-61
2020/12/18 08:19:10;;;;;;;16.45;10.98;;;;;;;0.71;81.46;100782.02;1644012;87;21200;-60
2020/12/18 08:21:45;;;;;;;15.43;11.93;;;;;;;0.81;81.14;100773.20;1702596;83;21172;-60
2020/12/18 08:24:35;;;;;;;13.18;8.68;;;;;;;0.77;80.86;100774.58;1716927;83;21288;-60
2020/12/18 08:27:11;;;;;;;14.68;8.68;;;;;;;0.74;81.14;100773.10;1719129;83;21617;-60
2020/12/18 08:29:40;;;;;;;13.15;8.13;;;;;;;0.71;80.97;100776.66;1690608;85;21703;-60
2020/12/18 08:32:07;;;;;;;13.22;8.45;;;;;;;0.87;80.76;100771.12;1690721;83;21631;-60
2020/12/18 08:34:35;;;;;;;13.08;8.45;;;;;;;0.93;80.62;100771.70;1689928;83;21157;-60
2020/12/18 08:37:03;;;;;;;14.18;8.78;;;;;;;0.91;80.84;100771.91;1707438;83;21157;-60
2020/12/18 08:39:34;;;;;;;13.85;8.50;;;;;;;0.86;80.74;100762.23;1719178;83;21189;-60
2020/12/18 08:42:03;;;;;;;14.05;9.23;;;;;;;0.85;80.67;100760.56;1713274;83;21160;-60
2020/12/18 08:44:38;;;;;;;14.18;8.95;;;;;;;0.94;80.35;100759.47;1616760;87;21315;-60
2020/12/18 08:47:24;;;;;;;13.65;8.88;;;;;;;0.95;80.46;100760.31;1690657;83;21201;-60
2020/12/18 08:49:54;;;;;;;15.13;9.80;;;;;;;0.88;80.66;100752.69;1704311;82;21580;-60
2020/12/18 08:52:28;;;;;;;17.20;10.50;;;;;;;0.77;80.94;100750.45;1712573;83;21593;-60
2020/12/18 08:55:07;;;;;;;22.25;13.72;;;;;;;0.81;81.03;100745.89;1689784;83;21204;-60
2020/12/18 08:57:38;;;;;;;25.82;15.70;;;;;;;0.91;80.81;100739.74;1719183;83;21322;-60
2020/12/18 09:00:19;;;;;;;27.62;15.90;;;;;;;0.89;81.09;100743.60;1674553;83;21163;-60
2020/12/18 09:02:59;;;;;;;30.48;16.75;;;;;;;0.90;81.35;100743.43;1694318;83;21664;-61
2020/12/18 09:05:42;;;;;;;19.12;12.00;;;;;;;0.93;81.26;100747.58;1692669;85;21177;-60
2020/12/18 09:08:21;;;;;;;14.98;9.48;;;;;;;1.11;80.55;100733.80;1692743;85;21197;-60
2020/12/18 09:10:56;;;;;;;14.58;8.23;;;;;;;1.11;80.13;100732.45;1692353;85;21192;-60
2020/12/18 09:13:30;;;;;;;14.73;10.10;;;;;;;0.98;80.29;100725.92;1657108;86;21157;-61
2020/12/18 09:16:03;;;;;;;17.57;11.25;;;;;;;0.89;80.59;100725.67;1714769;83;21294;-60
2020/12/18 09:18:38;;;;;;;12.93;8.73;;;;;;;0.97;80.72;100726.92;1719954;83;21308;-61
2020/12/18 09:21:13;;;;;;;12.25;8.15;;;;;;;1.06;80.68;100726.84;1671401;84;21964;-61
2020/12/18 09:23:42;;;;;;;14.07;8.80;;;;;;;1.01;80.94;100723.36;1692064;85;21192;-60
2020/12/18 09:26:13;;;;;;;12.60;7.72;;;;;;;0.97;81.14;100718.05;1690051;85;21747;-61
2020/12/18 09:28:41;;;;;;;11.60;7.25;;;;;;;1.02;81.10;100723.70;1683553;83;21177;-58
2020/12/18 09:31:08;;;;;;;12.43;8.00;;;;;;;1.11;80.59;100718.55;1657382;86;21173;-59
2020/12/18 09:33:38;;;;;;;12.80;8.50;;;;;;;1.10;80.89;100714.73;1720596;83;21157;-60
2020/12/18 09:36:16;;;;;;;13.32;8.80;;;;;;;1.07;81.18;100716.41;1698712;83;21149;-60
2020/12/18 09:38:48;;;;;;;13.65;9.13;;;;;;;1.10;81.45;100715.53;1702504;83;21179;-60
2020/12/18 09:41:19;;;;;;;11.93;8.23;;;;;;;1.27;81.13;100714.33;1715331;82;21169;-60
2020/12/18 09:43:46;;;;;;;14.68;8.63;;;;;;;1.29;80.86;100720.83;1656954;86;21213;-61
2020/12/18 09:46:15;;;;;;;13.75;9.55;;;;;;;1.20;81.07;100717.95;1708333;82;22133;-61
2020/12/18 09:48:45;;;;;;;12.82;8.45;;;;;;;1.08;81.34;100712.22;1722341;83;21209;-60
2020/12/18 09:51:14;;;;;;;11.60;8.10;;;;;;;1.15;81.27;100715.81;1706189;83;21332;-60
2020/12/18 09:53:42;;;;;;;13.32;8.80;;;;;;;1.25;80.76;100719.03;1690278;83;21256;-60
2020/12/18 09:56:10;;;;;;;13.03;8.25;;;;;;;1.19;80.75;100712.25;1703372;83;21181;-60
2020/12/18 09:58:38;;;;;;;12.28;8.53;;;;;;;1.08;80.99;100708.20;1710152;83;21692;-61
2020/12/18 10:01:06;;;;;;;11.25;7.35;;;;;;;1.07;81.29;100717.75;1685193;84;21306;-60
2020/12/18 10:03:33;;;;;;;11.43;7.47;;;;;;;1.20;80.72;100719.28;1636716;86;21240;-62
2020/12/18 10:06:01;;;;;;;9.95;7.05;;;;;;;1.19;80.87;100715.77;1670284;84;21264;-62
2020/12/18 10:08:30;;;;;;;9.58;6.85;;;;;;;1.14;80.91;100710.12;1668626;84;21175;-62
2020/12/18 10:10:58;;;;;;;11.45;7.00;;;;;;;1.14;81.05;100715.98;1706255;82;21193;-61
2020/12/18 10:13:26;;;;;;;10.65;6.42;;;;;;;1.21;80.61;100711.54;1709267;84;21546;-61
2020/12/18 10:15:53;;;;;;;9.45;6.47;;;;;;;1.31;80.17;100710.22;1709377;82;21633;-63
2020/12/18 10:18:20;;;;;;;12.23;8.43;;;;;;;1.26;80.29;100719.36;1709268;84;21324;-61
2020/12/18 10:20:47;;;;;;;10.93;8.15;;;;;;;1.20;80.48;100720.12;1709203;84;21153;-60
2020/12/18 10:23:15;;;;;;;14.75;9.38;;;;;;;1.19;80.53;100713.09;1691779;84;21304;-61
2020/12/18 10:25:44;;;;;;;14.98;10.28;;;;;;;1.36;80.38;100713.19;1631802;88;21166;-62
2020/12/18 10:28:11;;;;;;;12.63;8.73;;;;;;;1.46;80.38;100714.22;1682263;84;21174;-62
2020/12/18 10:30:38;;;;;;;17.05;10.32;;;;;;;1.44;80.28;100708.22;1712471;82;21149;-62
2020/12/18 10:33:06;;;;;;;12.75;8.53;;;;;;;1.41;80.38;100709.95;1713652;82;21283;-62
2020/12/18 10:35:33;;;;;;;15.58;10.13;;;;;;;1.48;79.98;100702.30;1714480;83;21765;-62
2020/12/18 10:38:00;;;;;;;21.50;14.65;;;;;;;1.62;79.78;100707.30;1706620;84;21724;-62
2020/12/18 10:40:28;;;;;;;17.35;11.55;;;;;;;1.58;79.65;100697.13;1660935;84;21161;-63
2020/12/18 10:42:55;;;;;;;14.80;10.88;;;;;;;1.46;79.41;100700.30;1693378;84;21145;-62
2020/12/18 10:45:22;;;;;;;16.82;11.97;;;;;;;1.36;79.66;100694.91;1686840;84;21582;-62
2020/12/18 10:47:50;;;;;;;24.10;15.90;;;;;;;1.36;79.60;100689.05;1700075;84;21167;-62
2020/12/18 10:50:17;;;;;;;13.53;10.08;;;;;;;1.43;79.43;100687.77;1692202;84;21183;-62
2020/12/18 10:52:46;;;;;;;20.80;10.90;;;;;;;1.34;79.52;100683.55;1681244;84;21146;-61
2020/12/18 10:55:13;;;;;;;11.50;8.65;;;;;;;1.24;80.00;100686.52;1682912;84;21196;-62
2020/12/18 10:57:41;;;;;;;15.55;10.43;;;;;;;1.18;80.22;100687.78;1654530;86;21208;-62
2020/12/18 11:00:08;;;;;;;12.00;8.53;;;;;;;1.17;80.17;100685.60;1645868;84;21199;-62
2020/12/18 11:02:35;;;;;;;13.18;9.23;;;;;;;1.28;79.99;100685.63;1666554;86;21164;-62
2020/12/18 11:05:03;;;;;;;14.68;10.20;;;;;;;1.23;80.10;100684.87;1640189;86;21151;-62
2020/12/18 11:07:31;;;;;;;15.55;10.23;;;;;;;1.19;80.45;100684.92;1673624;86;21188;-62
2020/12/18 11:09:58;;;;;;;14.18;9.48;;;;;;;1.14;80.59;100681.13;1673711;86;21239;-62
2020/12/18 11:12:26;;;;;;;13.58;9.40;;;;;;;1.20;80.57;100679.05;1667231;86;21196;-62
2020/12/18 11:14:53;;;;;;;16.55;10.40;;;;;;;1.30;80.41;100675.55;1672981;86;21175;-62
2020/12/18 11:17:20;;;;;;;18.12;10.32;;;;;;;1.24;80.42;100677.13;1644684;86;21196;-62
2020/12/18 11:19:49;;;;;;;15.05;10.60;;;;;;;1.20;80.74;100671.84;1643365;87;21193;-62
2020/12/18 11:22:17;;;;;;;14.30;9.90;;;;;;;1.19;80.94;100671.52;1678975;85;21207;-62
2020/12/18 11:24:44;;;;;;;16.23;11.30;;;;;;;1.32;80.64;100671.66;1676075;85;21163;-62
2020/12/18 11:27:13;;;;;;;14.85;10.45;;;;;;;1.40;80.20;100666.69;1664455;86;21186;-61
2020/12/18 11:29:40;;;;;;;17.77;11.93;;;;;;;1.31;80.33;100672.66;1678205;84;21165;-62
2020/12/18 11:32:07;;;;;;;18.02;11.88;;;;;;;1.25;80.72;100672.59;1660654;86;21196;-62
2020/12/18 11:34:35;;;;;;;17.42;11.95;;;;;;;1.22;81.05;100677.00;1675667;85;21163;-62
2020/12/18 11:37:03;;;;;;;19.07;12.65;;;;;;;1.33;80.74;100669.81;1649220;85;21187;-62
2020/12/18 11:39:30;;;;;;;16.70;11.73;;;;;;;1.38;80.44;100672.23;1676300;85;21215;-61